Time;durP1;ratioP1;P1;durP2;ratioP2;P2;SDS_P1;SDS_P2;PMS_P1;PMS_P2;Temp;Humidity;BMP_temperature;BMP_pressure;BME280_temperature;BME280_humidity;BME280_pressure;Samples;Min_cycle;Max_cycle;Signal;HPM_P1;HPM_P2
2024/02/24 00:00:09;;;;;;;7.47;2.45;;;4.20;99.90;;;;;;5106975;28;20078;-45
2024/02/24 00:02:35;;;;;;;8.52;2.17;;;4.20;99.90;;;;;;5108044;28;20290;-45
2024/02/24 00:05:00;;;;;;;7.75;2.35;;;4.20;99.90;;;;;;5107829;28;20050;-45
2024/02/24 00:07:26;;;;;;;9.05;2.20;;;4.20;99.90;;;;;;5107638;28;20043;-44
2024/02/24 00:09:52;;;;;;;11.50;4.53;;;4.20;99.90;;;;;;5108028;28;20032;-46
2024/02/24 00:12:17;;;;;;;13.32;4.80;;;4.20;99.90;;;;;;5108061;28;20031;-45
2024/02/24 00:14:43;;;;;;;9.82;3.17;;;4.20;99.90;;;;;;5107825;28;20030;-46
2024/02/24 00:17:09;;;;;;;10.23;2.45;;;4.20;99.90;;;;;;5107747;28;20064;-48
2024/02/24 00:19:35;;;;;;;11.20;2.40;;;4.30;99.90;;;;;;5107051;28;20081;-46
2024/02/24 00:22:00;;;;;;;8.48;2.17;;;4.20;99.90;;;;;;5107544;28;20220;-44
2024/02/24 00:24:26;;;;;;;5.80;1.60;;;4.20;99.90;;;;;;5107515;28;20035;-45
2024/02/24 00:26:51;;;;;;;9.10;2.00;;;4.20;99.90;;;;;;5107147;28;20323;-45
2024/02/24 00:29:17;;;;;;;10.63;2.38;;;4.10;99.90;;;;;;5107234;28;20039;-45
2024/02/24 00:31:43;;;;;;;7.63;1.95;;;4.10;99.90;;;;;;5107189;28;20036;-46
2024/02/24 00:34:08;;;;;;;9.10;1.90;;;4.10;99.90;;;;;;5107455;28;20020;-45
2024/02/24 00:36:34;;;;;;;5.93;1.90;;;4.10;99.90;;;;;;5107335;28;20028;-46
2024/02/24 00:39:00;;;;;;;8.15;2.58;;;4.20;99.90;;;;;;5107227;28;20032;-44
2024/02/24 00:41:25;;;;;;;11.52;2.53;;;4.20;99.90;;;;;;5107081;28;20036;-48
2024/02/24 00:43:52;;;;;;;7.18;2.22;;;4.30;99.90;;;;;;5106854;28;20024;-45
2024/02/24 00:46:18;;;;;;;6.30;2.35;;;4.30;99.90;;;;;;5107298;28;20292;-45
2024/02/24 00:48:44;;;;;;;9.23;2.30;;;4.30;99.90;;;;;;5107184;28;20095;-45
2024/02/24 00:51:09;;;;;;;4.85;1.67;;;4.40;99.90;;;;;;5106966;28;20028;-46
2024/02/24 00:53:35;;;;;;;7.32;1.80;;;4.40;99.90;;;;;;5107094;28;20261;-45
2024/02/24 00:56:01;;;;;;;7.45;1.77;;;4.40;99.90;;;;;;5107003;28;20286;-45
2024/02/24 00:58:26;;;;;;;5.30;1.83;;;4.40;99.90;;;;;;5107092;28;20091;-46
2024/02/24 01:00:52;;;;;;;6.75;2.00;;;4.40;99.90;;;;;;5106900;28;20076;-46
2024/02/24 01:03:17;;;;;;;6.45;1.65;;;4.40;99.90;;;;;;5106798;28;20028;-44
2024/02/24 01:05:44;;;;;;;7.72;1.95;;;4.50;99.90;;;;;;5106683;28;20064;-44
2024/02/24 01:08:10;;;;;;;10.32;4.13;;;4.50;99.90;;;;;;5106695;28;20032;-45
2024/02/24 01:10:36;;;;;;;6.47;1.50;;;4.60;99.90;;;;;;5106717;28;20090;-45
2024/02/24 01:13:02;;;;;;;11.15;1.85;;;4.60;99.90;;;;;;5105866;28;20289;-44
2024/02/24 01:15:27;;;;;;;7.75;2.15;;;4.70;99.90;;;;;;5106384;28;20311;-45
2024/02/24 01:17:55;;;;;;;7.50;1.75;;;4.70;99.90;;;;;;5106609;28;20054;-45
2024/02/24 01:20:22;;;;;;;9.00;1.92;;;4.60;99.90;;;;;;5106733;28;20055;-45
2024/02/24 01:22:52;;;;;;;9.05;2.30;;;4.70;99.90;;;;;;5106120;28;20048;-44
2024/02/24 01:25:20;;;;;;;10.10;2.20;;;4.60;99.90;;;;;;5105850;28;20029;-44
2024/02/24 01:27:46;;;;;;;8.10;2.63;;;4.60;99.90;;;;;;5106355;28;20028;-45
2024/02/24 01:30:12;;;;;;;7.82;2.10;;;4.50;99.90;;;;;;5106472;28;20181;-45
2024/02/24 01:32:37;;;;;;;7.20;1.90;;;4.60;99.90;;;;;;5106339;28;20031;-45
2024/02/24 01:35:03;;;;;;;11.15;2.17;;;4.60;99.90;;;;;;5106069;28;20031;-44
2024/02/24 01:37:29;;;;;;;7.93;1.80;;;4.60;99.90;;;;;;5106718;28;20055;-44
2024/02/24 01:39:55;;;;;;;6.15;1.83;;;4.50;99.90;;;;;;5106265;28;20028;-45
2024/02/24 01:42:20;;;;;;;9.18;2.10;;;4.60;99.90;;;;;;5106294;28;20285;-44
2024/02/24 01:44:46;;;;;;;5.78;1.90;;;4.50;99.90;;;;;;5106225;28;20059;-44
2024/02/24 01:47:12;;;;;;;7.55;2.33;;;4.50;99.90;;;;;;5105939;28;20163;-45
2024/02/24 01:49:38;;;;;;;10.75;2.25;;;4.50;99.90;;;;;;5104985;28;20028;-45
2024/02/24 01:52:05;;;;;;;8.75;2.40;;;4.60;99.90;;;;;;5088162;28;20197;-46
2024/02/24 01:54:31;;;;;;;6.15;2.05;;;4.50;99.90;;;;;;5106007;28;20054;-45
2024/02/24 01:56:56;;;;;;;8.80;2.22;;;4.60;99.90;;;;;;5105090;28;20024;-45
2024/02/24 01:59:22;;;;;;;5.90;1.92;;;4.70;99.90;;;;;;5105944;28;20032;-45
2024/02/24 02:01:48;;;;;;;7.25;1.98;;;4.70;99.90;;;;;;5104875;28;20335;-45
2024/02/24 02:04:13;;;;;;;6.63;2.17;;;4.60;99.90;;;;;;5105493;28;20032;-44
2024/02/24 02:06:39;;;;;;;11.38;2.40;;;4.80;99.90;;;;;;5105914;28;20040;-45
2024/02/24 02:09:04;;;;;;;5.53;2.00;;;4.90;99.90;;;;;;5105501;28;20078;-45
2024/02/24 02:11:30;;;;;;;8.10;1.90;;;4.90;99.90;;;;;;5105779;28;20016;-45
2024/02/24 02:13:56;;;;;;;8.13;2.13;;;4.90;99.90;;;;;;5105798;28;20163;-45
2024/02/24 02:16:22;;;;;;;37.78;2.70;;;4.90;99.90;;;;;;5105781;28;20228;-45
2024/02/24 02:18:47;;;;;;;8.95;1.80;;;4.70;99.90;;;;;;5105342;28;20141;-45
2024/02/24 02:21:13;;;;;;;6.45;1.80;;;4.70;99.90;;;;;;5105544;28;20051;-45
2024/02/24 02:23:39;;;;;;;9.80;2.47;;;4.70;99.90;;;;;;5087777;28;20083;-44
2024/02/24 02:26:04;;;;;;;4.78;2.03;;;4.80;99.90;;;;;;5105709;28;20031;-45
2024/02/24 02:28:30;;;;;;;9.13;2.50;;;4.70;99.90;;;;;;5105582;28;20054;-46
2024/02/24 02:30:56;;;;;;;10.25;2.50;;;4.80;99.90;;;;;;5105364;28;20028;-45
2024/02/24 02:33:21;;;;;;;9.15;2.35;;;4.70;99.90;;;;;;5105810;28;20020;-45
2024/02/24 02:35:47;;;;;;;10.48;3.80;;;4.50;99.90;;;;;;5105967;28;20028;-45
2024/02/24 02:38:13;;;;;;;6.85;2.75;;;4.60;99.90;;;;;;5109742;28;20048;-45
2024/02/24 02:40:38;;;;;;;6.50;1.77;;;4.60;99.90;;;;;;5109374;28;20031;-45
2024/02/24 02:43:05;;;;;;;7.93;2.72;;;4.70;99.90;;;;;;5109469;28;20100;-44
2024/02/24 02:45:30;;;;;;;9.23;2.55;;;4.80;99.90;;;;;;5109650;28;20024;-45
2024/02/24 02:47:56;;;;;;;9.63;2.35;;;4.70;99.90;;;;;;5109419;28;20035;-44
2024/02/24 02:50:21;;;;;;;6.88;2.22;;;4.80;99.90;;;;;;5109701;28;20036;-45
2024/02/24 02:52:48;;;;;;;4.68;1.90;;;4.90;99.90;;;;;;5109096;28;20024;-45
2024/02/24 02:55:14;;;;;;;6.35;2.55;;;4.90;99.90;;;;;;5109210;28;20027;-44
2024/02/24 02:57:40;;;;;;;4.65;1.65;;;4.90;99.90;;;;;;5109156;28;20024;-45
2024/02/24 03:00:07;;;;;;;5.03;1.98;;;4.90;99.90;;;;;;5109282;28;20097;-45
2024/02/24 03:02:32;;;;;;;6.07;1.75;;;5.00;99.90;;;;;;5109271;28;20305;-44
2024/02/24 03:04:59;;;;;;;5.00;2.15;;;5.00;99.90;;;;;;5109135;28;20062;-44
2024/02/24 03:07:24;;;;;;;5.80;2.20;;;4.90;99.90;;;;;;5108562;28;20042;-45
2024/02/24 03:09:50;;;;;;;5.68;1.95;;;4.90;99.90;;;;;;5109200;28;20055;-45
2024/02/24 03:12:16;;;;;;;8.27;1.77;;;4.90;99.90;;;;;;5109064;28;20024;-44
2024/02/24 03:14:42;;;;;;;7.25;2.10;;;4.80;99.90;;;;;;5109084;28;20032;-44
2024/02/24 03:17:08;;;;;;;11.02;2.28;;;4.90;99.90;;;;;;5108714;28;20018;-45
2024/02/24 03:19:33;;;;;;;7.70;2.10;;;5.00;99.90;;;;;;5107845;28;20055;-46
2024/02/24 03:21:59;;;;;;;7.45;2.10;;;5.00;99.90;;;;;;5108460;28;20299;-45
2024/02/24 03:24:24;;;;;;;8.60;2.53;;;5.10;99.90;;;;;;5108896;28;20095;-44
2024/02/24 03:26:50;;;;;;;6.70;2.17;;;5.10;99.90;;;;;;5108405;28;20043;-45
2024/02/24 03:29:16;;;;;;;6.90;1.95;;;5.00;99.90;;;;;;5108783;28;20080;-44
2024/02/24 03:31:42;;;;;;;5.93;1.65;;;5.10;99.90;;;;;;5109086;28;20060;-45
2024/02/24 03:34:07;;;;;;;5.72;1.73;;;5.10;99.90;;;;;;5108795;28;20278;-44
2024/02/24 03:36:33;;;;;;;7.85;2.22;;;5.10;99.90;;;;;;5108598;28;20016;-44
2024/02/24 03:38:59;;;;;;;5.30;2.15;;;5.10;99.90;;;;;;5108243;28;20091;-45
2024/02/24 03:41:25;;;;;;;6.05;1.83;;;5.20;99.90;;;;;;5108566;28;20032;-45
2024/02/24 03:43:51;;;;;;;7.10;2.08;;;5.20;99.90;;;;;;5108524;28;20091;-45
2024/02/24 03:46:17;;;;;;;7.00;2.08;;;5.20;99.90;;;;;;5108164;28;20182;-45
2024/02/24 03:48:45;;;;;;;9.38;2.22;;;5.30;99.90;;;;;;5108199;28;20282;-46
2024/02/24 03:51:11;;;;;;;5.60;1.83;;;5.30;99.90;;;;;;5108204;28;20020;-45
2024/02/24 03:53:37;;;;;;;4.60;1.90;;;5.30;99.90;;;;;;5107941;28;20070;-44
2024/02/24 03:56:03;;;;;;;8.93;2.15;;;5.30;99.90;;;;;;5108153;28;20035;-44
2024/02/24 03:58:29;;;;;;;6.53;2.00;;;5.30;99.90;;;;;;5108091;28;20039;-45
2024/02/24 04:00:56;;;;;;;6.90;2.30;;;5.30;99.90;;;;;;5108273;28;20032;-44
2024/02/24 04:03:22;;;;;;;7.32;2.10;;;5.30;99.90;;;;;;5108017;28;20189;-45
2024/02/24 04:05:48;;;;;;;10.00;2.33;;;5.30;99.90;;;;;;5107897;28;20108;-44
2024/02/24 04:08:13;;;;;;;11.43;2.67;;;5.30;99.90;;;;;;5108085;28;20059;-45
2024/02/24 04:10:39;;;;;;;4.55;1.65;;;5.30;99.90;;;;;;5107933;28;20028;-45
2024/02/24 04:13:05;;;;;;;6.03;2.35;;;5.30;99.90;;;;;;5106868;28;20020;-45
2024/02/24 04:15:31;;;;;;;7.07;1.83;;;5.30;99.90;;;;;;5107725;28;20093;-45
2024/02/24 04:17:56;;;;;;;9.25;1.80;;;5.30;99.90;;;;;;5107670;28;20039;-45
2024/02/24 04:20:22;;;;;;;6.57;1.95;;;5.30;99.90;;;;;;5107693;28;20165;-45
2024/02/24 04:22:48;;;;;;;9.38;2.33;;;5.20;99.90;;;;;;5107222;28;20056;-45
2024/02/24 04:25:13;;;;;;;8.50;1.88;;;5.20;99.90;;;;;;5107145;28;20036;-44
2024/02/24 04:27:39;;;;;;;5.43;2.10;;;5.30;99.90;;;;;;5107354;28;20085;-45
2024/02/24 04:30:05;;;;;;;7.90;2.08;;;5.30;99.90;;;;;;5107565;28;20282;-44
2024/02/24 04:32:31;;;;;;;8.27;2.25;;;5.30;99.90;;;;;;5107421;28;20028;-45
2024/02/24 04:34:57;;;;;;;10.60;2.60;;;5.30;99.90;;;;;;5107343;28;20313;-45
2024/02/24 04:37:23;;;;;;;7.57;2.00;;;5.30;99.90;;;;;;5107174;28;20016;-44
2024/02/24 04:39:48;;;;;;;7.68;2.22;;;5.20;99.90;;;;;;5107243;28;20160;-45
2024/02/24 04:42:14;;;;;;;7.05;2.00;;;5.20;99.90;;;;;;5106361;28;20045;-45
2024/02/24 04:44:40;;;;;;;7.93;2.55;;;5.20;99.90;;;;;;5107349;28;20036;-44
2024/02/24 04:47:06;;;;;;;6.63;2.55;;;5.30;99.90;;;;;;5107013;28;20098;-45
2024/02/24 04:49:32;;;;;;;9.82;2.17;;;5.30;99.90;;;;;;5107096;28;20024;-44
2024/02/24 04:51:58;;;;;;;8.02;1.90;;;5.30;99.90;;;;;;5107147;28;20044;-45
2024/02/24 04:54:24;;;;;;;6.85;2.15;;;5.30;99.90;;;;;;5107011;28;20039;-45
2024/02/24 04:56:49;;;;;;;10.00;2.05;;;5.30;99.90;;;;;;5106514;28;20145;-44
2024/02/24 04:59:16;;;;;;;8.88;2.03;;;5.30;99.90;;;;;;5106202;28;20024;-44
2024/02/24 05:01:42;;;;;;;7.20;2.00;;;5.30;99.90;;;;;;5106836;28;20028;-45
2024/02/24 05:04:08;;;;;;;8.52;2.00;;;5.40;99.90;;;;;;5106899;28;20032;-47
2024/02/24 05:06:33;;;;;;;9.40;1.80;;;5.40;99.90;;;;;;5106920;28;20031;-45
2024/02/24 05:08:59;;;;;;;6.93;2.22;;;5.40;99.90;;;;;;5106854;28;20317;-45
2024/02/24 05:11:25;;;;;;;6.90;2.65;;;5.40;99.90;;;;;;5106575;28;20032;-48
2024/02/24 05:13:50;;;;;;;8.32;2.00;;;5.40;99.90;;;;;;5106680;28;20038;-44
2024/02/24 05:16:16;;;;;;;6.45;2.28;;;5.40;99.90;;;;;;5106256;28;20028;-45
2024/02/24 05:18:42;;;;;;;7.97;2.15;;;5.40;99.90;;;;;;5106675;28;20051;-45
2024/02/24 05:21:07;;;;;;;5.28;1.90;;;5.40;99.90;;;;;;5106812;28;20020;-44
2024/02/24 05:23:33;;;;;;;5.72;1.83;;;5.30;99.90;;;;;;5106268;28;20055;-46
2024/02/24 05:25:59;;;;;;;5.20;2.13;;;5.20;99.90;;;;;;5106420;28;20027;-45
2024/02/24 05:28:24;;;;;;;8.07;2.10;;;5.20;99.90;;;;;;5106381;28;20063;-45
2024/02/24 05:30:50;;;;;;;6.30;2.20;;;5.20;99.90;;;;;;5106735;28;20024;-46
2024/02/24 05:33:17;;;;;;;8.02;2.25;;;5.10;99.90;;;;;;5106145;28;20024;-45
2024/02/24 05:35:42;;;;;;;5.82;2.10;;;5.20;99.90;;;;;;5106405;28;20399;-45
2024/02/24 05:38:08;;;;;;;7.68;2.10;;;5.20;99.90;;;;;;5106216;28;20032;-45
2024/02/24 05:40:34;;;;;;;4.40;1.60;;;5.20;99.90;;;;;;5106299;28;20074;-44
2024/02/24 05:42:59;;;;;;;5.40;1.88;;;5.20;99.90;;;;;;5106185;28;20070;-45
2024/02/24 05:45:25;;;;;;;6.45;2.05;;;5.10;99.90;;;;;;5105984;28;20047;-45
2024/02/24 05:47:51;;;;;;;7.50;2.05;;;5.10;99.90;;;;;;5105601;28;20027;-45
2024/02/24 05:50:16;;;;;;;5.20;2.22;;;4.90;99.90;;;;;;5106113;28;20024;-47
2024/02/24 05:52:42;;;;;;;7.18;1.73;;;4.80;99.90;;;;;;5106061;28;20099;-46
2024/02/24 05:55:08;;;;;;;7.35;2.20;;;4.80;99.90;;;;;;5105928;28;20244;-44
2024/02/24 05:57:34;;;;;;;6.35;1.92;;;4.70;99.90;;;;;;5105879;28;20023;-45
2024/02/24 06:00:00;;;;;;;5.18;1.65;;;4.60;99.90;;;;;;5106024;28;20110;-44
2024/02/24 06:02:25;;;;;;;6.03;1.83;;;4.60;99.90;;;;;;5106003;28;20024;-45
2024/02/24 06:04:51;;;;;;;4.78;2.33;;;4.50;99.90;;;;;;5105993;28;20092;-45
2024/02/24 06:07:17;;;;;;;6.63;1.98;;;4.50;99.90;;;;;;5105919;28;20081;-44
2024/02/24 06:09:42;;;;;;;6.35;1.90;;;4.50;99.90;;;;;;5105812;28;20020;-44
2024/02/24 06:12:08;;;;;;;5.50;2.40;;;4.50;99.90;;;;;;5105970;28;20024;-44
2024/02/24 06:14:34;;;;;;;5.55;1.90;;;4.40;99.90;;;;;;5105831;28;20357;-45
2024/02/24 06:17:00;;;;;;;6.13;2.25;;;4.30;99.90;;;;;;5105543;28;20093;-45
2024/02/24 06:19:25;;;;;;;3.85;2.10;;;4.30;99.90;;;;;;5105431;28;20032;-44
2024/02/24 06:21:51;;;;;;;7.20;2.95;;;4.30;99.90;;;;;;5105630;28;20056;-44
2024/02/24 06:24:17;;;;;;;4.88;2.10;;;4.30;99.90;;;;;;5105585;28;20074;-45
2024/02/24 06:26:42;;;;;;;6.63;2.00;;;4.30;99.90;;;;;;5105667;28;20032;-45
2024/02/24 06:29:08;;;;;;;4.57;1.83;;;4.20;99.90;;;;;;5105323;28;20114;-44
2024/02/24 06:31:34;;;;;;;5.00;2.13;;;4.10;99.90;;;;;;5105160;28;20090;-45
2024/02/24 06:33:59;;;;;;;5.90;1.98;;;4.00;99.90;;;;;;5087623;28;20027;-43
2024/02/24 06:36:25;;;;;;;6.70;2.15;;;3.90;99.90;;;;;;5106161;28;20031;-44
2024/02/24 06:38:51;;;;;;;7.70;2.30;;;3.90;99.90;;;;;;5105323;28;20028;-44
2024/02/24 06:41:18;;;;;;;6.22;2.13;;;3.80;99.90;;;;;;5105396;28;20066;-44
2024/02/24 06:43:44;;;;;;;8.50;2.50;;;3.70;99.90;;;;;;5105347;28;20024;-44
2024/02/24 06:46:11;;;;;;;6.28;2.40;;;3.80;99.90;;;;;;5105323;28;20028;-44
2024/02/24 06:48:36;;;;;;;5.93;2.30;;;3.80;99.90;;;;;;5104323;28;20028;-44
2024/02/24 06:51:03;;;;;;;5.88;1.80;;;3.80;99.90;;;;;;5105128;28;20038;-45
2024/02/24 06:53:29;;;;;;;3.95;1.80;;;3.70;99.90;;;;;;5105229;28;20028;-45
2024/02/24 06:55:54;;;;;;;5.00;1.60;;;3.60;99.90;;;;;;5105320;28;20047;-45
2024/02/24 06:58:20;;;;;;;7.38;1.90;;;3.60;99.90;;;;;;5105484;28;20284;-44
2024/02/24 07:00:46;;;;;;;6.07;2.17;;;3.50;99.90;;;;;;5105415;28;20390;-44
2024/02/24 07:03:11;;;;;;;6.65;2.45;;;3.40;99.90;;;;;;5105250;28;20035;-44
2024/02/24 07:05:37;;;;;;;6.05;2.38;;;3.40;99.90;;;;;;5105171;28;20047;-45
2024/02/24 07:08:03;;;;;;;4.20;2.25;;;3.50;99.90;;;;;;5105169;28;20095;-45
2024/02/24 07:10:29;;;;;;;7.57;2.15;;;3.50;99.90;;;;;;5105242;28;20031;-44
2024/02/24 07:12:54;;;;;;;6.53;2.30;;;3.50;99.90;;;;;;5105315;28;20100;-44
2024/02/24 07:15:20;;;;;;;6.88;2.05;;;3.60;99.90;;;;;;5105015;28;20051;-46
2024/02/24 07:17:46;;;;;;;5.78;1.92;;;3.70;99.90;;;;;;5104971;28;20024;-46
2024/02/24 07:20:12;;;;;;;6.25;2.10;;;3.80;99.90;;;;;;5105104;28;20070;-44
2024/02/24 07:22:37;;;;;;;5.95;3.03;;;3.90;99.90;;;;;;5106842;28;20048;-46
2024/02/24 07:25:03;;;;;;;9.20;2.83;;;3.90;99.90;;;;;;5108452;28;20038;-45
2024/02/24 07:27:29;;;;;;;6.38;2.40;;;4.00;99.90;;;;;;5108428;28;20023;-44
2024/02/24 07:29:55;;;;;;;14.57;4.35;;;4.00;99.90;;;;;;5108635;28;20027;-44
2024/02/24 07:32:22;;;;;;;8.48;2.75;;;4.10;99.90;;;;;;5108794;28;20054;-45
2024/02/24 07:34:48;;;;;;;9.23;3.10;;;4.20;99.90;;;;;;5108326;28;20048;-45
2024/02/24 07:37:14;;;;;;;5.00;2.08;;;4.20;99.90;;;;;;5108561;28;20035;-45
2024/02/24 07:39:39;;;;;;;10.45;3.20;;;4.30;99.90;;;;;;5108424;28;20031;-45
2024/02/24 07:42:05;;;;;;;6.95;2.42;;;4.40;99.90;;;;;;5108353;28;20165;-45
2024/02/24 07:44:31;;;;;;;7.60;2.50;;;4.40;99.90;;;;;;5108271;28;20274;-46
2024/02/24 07:46:56;;;;;;;5.88;3.75;;;4.30;99.90;;;;;;5107997;28;20077;-47
2024/02/24 07:49:22;;;;;;;4.47;2.28;;;4.40;99.90;;;;;;5107952;28;20024;-45
2024/02/24 07:51:47;;;;;;;4.47;2.00;;;4.60;99.90;;;;;;5108047;28;20028;-46
2024/02/24 07:54:13;;;;;;;4.68;2.30;;;5.00;99.90;;;;;;5107219;28;20117;-45
2024/02/24 07:56:39;;;;;;;8.80;1.90;;;5.20;99.90;;;;;;5108215;28;20051;-45
2024/02/24 07:59:04;;;;;;;4.88;2.03;;;5.40;99.90;;;;;;5107077;28;20036;-47
2024/02/24 08:01:30;;;;;;;6.18;2.40;;;5.70;99.90;;;;;;5107775;28;20082;-46
2024/02/24 08:03:56;;;;;;;7.05;2.10;;;6.00;99.90;;;;;;5108084;28;20054;-45
2024/02/24 08:06:22;;;;;;;7.13;3.78;;;6.50;99.90;;;;;;5107756;28;20040;-46
2024/02/24 08:08:47;;;;;;;4.97;2.10;;;7.00;99.90;;;;;;5107222;28;20035;-46
2024/02/24 08:11:13;;;;;;;6.13;2.35;;;6.90;99.90;;;;;;5106643;28;20024;-46
2024/02/24 08:13:41;;;;;;;4.72;2.03;;;6.70;99.90;;;;;;5107592;28;20110;-46
2024/02/24 08:16:08;;;;;;;6.78;2.88;;;6.50;99.90;;;;;;5107760;28;20028;-46
2024/02/24 08:18:34;;;;;;;6.70;3.38;;;6.20;99.90;;;;;;5107772;28;20115;-48
2024/02/24 08:21:05;;;;;;;9.05;3.65;;;6.10;99.90;;;;;;5107664;28;20046;-46
2024/02/24 08:23:30;;;;;;;8.27;3.28;;;6.00;99.90;;;;;;5107301;28;20040;-48
2024/02/24 08:25:56;;;;;;;6.97;2.95;;;6.10;99.90;;;;;;5107380;28;20313;-46
2024/02/24 08:28:21;;;;;;;12.77;5.13;;;6.00;99.90;;;;;;5107460;28;20047;-48
2024/02/24 08:30:47;;;;;;;9.07;4.40;;;6.10;99.90;;;;;;5107096;28;20034;-46
2024/02/24 08:33:13;;;;;;;7.38;3.83;;;6.20;99.90;;;;;;5106387;28;20040;-45
2024/02/24 08:35:39;;;;;;;11.73;6.53;;;6.30;99.90;;;;;;5107324;28;20159;-47
2024/02/24 08:38:05;;;;;;;20.42;12.57;;;6.50;99.90;;;;;;5107219;28;20306;-46
2024/02/24 08:40:32;;;;;;;24.80;12.85;;;6.80;99.90;;;;;;5107434;28;20069;-49
2024/02/24 08:42:58;;;;;;;22.90;11.63;;;7.20;99.90;;;;;;5107214;28;20040;-46
2024/02/24 08:45:23;;;;;;;27.00;13.32;;;7.70;99.90;;;;;;5106979;28;20032;-47
2024/02/24 08:47:49;;;;;;;23.48;12.88;;;8.20;99.90;;;;;;5106844;28;20206;-49
2024/02/24 08:50:15;;;;;;;20.80;13.60;;;9.20;99.90;;;;;;5106981;28;20028;-48
2024/02/24 08:52:40;;;;;;;15.68;11.63;;;10.30;99.90;;;;;;5107176;28;20020;-49
2024/02/24 08:55:06;;;;;;;12.80;7.72;;;10.50;99.90;;;;;;5106902;28;20020;-49
2024/02/24 08:57:32;;;;;;;10.75;7.30;;;9.80;99.90;;;;;;5106576;28;20317;-48
2024/02/24 08:59:57;;;;;;;13.43;7.13;;;9.30;99.90;;;;;;5106655;28;20046;-48
2024/02/24 09:02:23;;;;;;;10.80;5.78;;;9.00;99.90;;;;;;5106757;28;20032;-46
2024/02/24 09:04:49;;;;;;;12.48;5.65;;;8.60;99.90;;;;;;5106474;28;20053;-48
2024/02/24 09:07:14;;;;;;;10.45;5.05;;;8.50;99.90;;;;;;5106819;28;20028;-51
2024/02/24 09:09:40;;;;;;;12.65;4.47;;;8.20;99.90;;;;;;5106384;28;20020;-46
2024/02/24 09:12:06;;;;;;;10.52;4.50;;;8.00;99.90;;;;;;5106522;28;20063;-48
2024/02/24 09:14:32;;;;;;;12.48;6.03;;;7.90;99.90;;;;;;5106557;28;20170;-49
2024/02/24 09:16:57;;;;;;;9.32;3.40;;;7.90;99.90;;;;;;5106270;28;20027;-46
2024/02/24 09:19:25;;;;;;;4.90;2.95;;;7.70;99.90;;;;;;5106433;28;20046;-47
2024/02/24 09:21:51;;;;;;;8.27;4.07;;;7.60;99.90;;;;;;5106392;28;20024;-46
2024/02/24 09:24:17;;;;;;;10.38;3.58;;;8.10;99.90;;;;;;5106430;28;20373;-45
2024/02/24 09:26:42;;;;;;;8.20;3.40;;;8.20;99.90;;;;;;5106656;28;20051;-48
2024/02/24 09:29:08;;;;;;;8.02;4.20;;;8.20;99.90;;;;;;5105742;28;20028;-45
2024/02/24 09:31:34;;;;;;;5.38;2.88;;;8.20;99.90;;;;;;5106389;28;20028;-46
2024/02/24 09:33:59;;;;;;;4.95;2.80;;;8.30;99.90;;;;;;5106028;28;20035;-45
2024/02/24 09:36:25;;;;;;;6.32;2.40;;;8.20;99.90;;;;;;5106011;28;20031;-45
2024/02/24 09:38:51;;;;;;;5.68;2.20;;;8.10;99.90;;;;;;5105755;28;20032;-46
2024/02/24 09:41:18;;;;;;;5.57;2.28;;;7.90;99.90;;;;;;5105915;28;20047;-45
2024/02/24 09:43:43;;;;;;;4.35;2.20;;;7.80;99.90;;;;;;5105703;28;20026;-46
2024/02/24 09:46:09;;;;;;;6.95;2.50;;;8.00;99.90;;;;;;5105278;28;20055;-46
2024/02/24 09:48:36;;;;;;;14.40;6.80;;;8.30;99.90;;;;;;5105222;28;20035;-46
2024/02/24 09:51:02;;;;;;;10.45;4.45;;;9.10;99.90;;;;;;5106230;28;20028;-45
2024/02/24 09:53:28;;;;;;;13.68;6.00;;;9.90;99.90;;;;;;5105789;28;20020;-46
2024/02/24 09:55:53;;;;;;;6.93;3.00;;;10.00;99.90;;;;;;5105616;28;20035;-48
2024/02/24 09:58:20;;;;;;;4.68;2.30;;;10.70;99.90;;;;;;5105699;28;20043;-50
2024/02/24 10:00:49;;;;;;;4.88;1.98;;;10.90;99.90;;;;;;5087776;28;20300;-48
2024/02/24 10:03:15;;;;;;;5.35;1.80;;;12.50;99.90;;;;;;5105329;28;20053;-49
2024/02/24 10:05:41;;;;;;;4.85;2.22;;;13.70;99.90;;;;;;5104379;28;20137;-49
2024/02/24 10:08:07;;;;;;;4.88;2.17;;;14.60;99.90;;;;;;5105274;28;20142;-47
2024/02/24 10:10:33;;;;;;;3.50;1.70;;;15.10;99.90;;;;;;5104721;28;20032;-49
2024/02/24 10:12:59;;;;;;;3.33;1.63;;;15.20;99.90;;;;;;5104914;28;20075;-47
2024/02/24 10:15:25;;;;;;;4.57;1.60;;;15.50;99.90;;;;;;5104953;28;20142;-48
2024/02/24 10:17:53;;;;;;;3.80;2.05;;;16.00;99.90;;;;;;5105205;28;20091;-48
2024/02/24 10:20:19;;;;;;;3.17;1.75;;;17.00;99.90;;;;;;5104676;28;20335;-48
2024/02/24 10:22:45;;;;;;;5.18;1.90;;;17.40;99.90;;;;;;5104356;28;20178;-47
2024/02/24 10:25:10;;;;;;;8.15;2.10;;;17.60;99.90;;;;;;5104486;28;20035;-49
2024/02/24 10:27:36;;;;;;;5.43;1.80;;;17.60;99.90;;;;;;5104535;28;20032;-47
2024/02/24 10:30:04;;;;;;;5.03;1.42;;;17.80;99.90;;;;;;5105218;28;20089;-48
2024/02/24 10:32:31;;;;;;;4.18;1.60;;;19.00;99.90;;;;;;5102856;28;20197;-46
2024/02/24 10:34:56;;;;;;;7.82;4.10;;;18.80;99.90;;;;;;5087016;28;20031;-50
2024/02/24 10:37:22;;;;;;;4.18;1.88;;;17.50;99.90;;;;;;5104084;28;20016;-50
2024/02/24 10:39:48;;;;;;;6.55;2.00;;;17.90;99.90;;;;;;5104936;28;20036;-47
2024/02/24 10:42:13;;;;;;;4.68;1.80;;;16.60;99.90;;;;;;5087091;28;20116;-48
2024/02/24 10:44:40;;;;;;;4.38;1.50;;;16.90;99.90;;;;;;5104167;28;20032;-47
2024/02/24 10:47:05;;;;;;;5.57;1.48;;;16.60;99.90;;;;;;5103658;28;20063;-50
2024/02/24 10:49:31;;;;;;;4.60;1.80;;;16.10;99.90;;;;;;5103955;28;20035;-49
2024/02/24 10:51:57;;;;;;;4.65;2.15;;;16.30;99.90;;;;;;5104973;28;20032;-50
2024/02/24 10:54:27;;;;;;;3.58;1.50;;;15.20;99.90;;;;;;5105421;28;20024;-49
2024/02/24 10:56:56;;;;;;;4.63;2.08;;;15.20;99.90;;;;;;5104932;28;20027;-49
2024/02/24 10:59:27;;;;;;;5.07;1.73;;;14.50;99.90;;;;;;5108007;28;20031;-49
2024/02/24 11:01:52;;;;;;;5.13;1.58;;;13.70;99.90;;;;;;5108950;28;20202;-50
2024/02/24 11:04:18;;;;;;;4.32;1.50;;;13.10;99.90;;;;;;5107784;28;20027;-46
2024/02/24 11:06:51;;;;;;;2.63;1.15;;;12.70;99.90;;;;;;5108056;28;20031;-47
2024/02/24 11:09:38;;;;;;;3.67;1.25;;;13.30;99.90;;;;;;5108412;28;20032;-49
2024/02/24 11:12:07;;;;;;;3.55;1.58;;;15.40;99.90;;;;;;5108414;28;20031;-50
2024/02/24 11:14:37;;;;;;;22.13;16.77;;;16.20;99.90;;;;;;5108652;28;20032;-49
2024/02/24 11:17:03;;;;;;;2.45;1.40;;;16.40;99.90;;;;;;5108246;28;20016;-49
2024/02/24 11:19:47;;;;;;;6.85;1.80;;;17.40;99.90;;;;;;5108136;28;20286;-50
2024/02/24 11:22:20;;;;;;;4.13;1.42;;;16.50;99.90;;;;;;5090131;28;20196;-49
2024/02/24 11:24:46;;;;;;;3.25;1.20;;;15.10;99.90;;;;;;5090475;28;20154;-48
2024/02/24 11:27:12;;;;;;;4.32;1.55;;;13.90;99.90;;;;;;5107329;28;20042;-48
2024/02/24 11:29:38;;;;;;;5.60;1.75;;;13.20;99.90;;;;;;5107841;28;20115;-49
2024/02/24 11:32:22;;;;;;;11.70;4.57;;;12.70;99.90;;;;;;5107820;28;20024;-50
2024/02/24 11:34:47;;;;;;;5.07;1.52;;;12.20;99.90;;;;;;5107623;28;20218;-46
2024/02/24 11:37:19;;;;;;;3.40;1.27;;;12.20;99.90;;;;;;5106938;28;20031;-46
2024/02/24 11:39:45;;;;;;;3.72;1.23;;;12.20;99.90;;;;;;5089803;28;20170;-49
2024/02/24 11:42:11;;;;;;;3.60;1.38;;;12.00;99.90;;;;;;5106809;28;20028;-48
2024/02/24 11:44:41;;;;;;;5.95;1.38;;;13.60;99.90;;;;;;5107801;28;20078;-47
2024/02/24 11:47:07;;;;;;;4.50;1.35;;;14.10;99.90;;;;;;5107428;28;20087;-49
2024/02/24 11:49:33;;;;;;;5.00;1.58;;;13.30;99.90;;;;;;5089228;28;20205;-48
2024/02/24 11:51:58;;;;;;;6.25;2.15;;;12.50;99.90;;;;;;5107059;28;20049;-48
2024/02/24 11:54:24;;;;;;;6.45;2.50;;;11.80;99.90;;;;;;5105304;28;20024;-49
2024/02/24 11:56:50;;;;;;;4.22;1.77;;;11.50;99.90;;;;;;5107310;28;20166;-49
2024/02/24 11:59:15;;;;;;;4.63;1.67;;;11.40;99.90;;;;;;5106162;28;20073;-51
2024/02/24 12:01:41;;;;;;;3.60;1.70;;;11.60;99.90;;;;;;5105836;28;20028;-48
2024/02/24 12:04:07;;;;;;;6.90;2.33;;;12.60;99.90;;;;;;5107330;28;20086;-48
2024/02/24 12:06:32;;;;;;;4.28;1.80;;;12.50;99.90;;;;;;5107268;28;20019;-47
2024/02/24 12:08:58;;;;;;;3.40;1.73;;;13.10;99.90;;;;;;5105715;28;20059;-48
2024/02/24 12:11:24;;;;;;;8.18;1.85;;;15.30;99.90;;;;;;5105855;28;20043;-51
2024/02/24 12:13:50;;;;;;;5.00;2.17;;;14.20;99.90;;;;;;5106081;28;20262;-48
2024/02/24 12:16:16;;;;;;;3.72;1.70;;;13.20;99.90;;;;;;5107325;28;20034;-49
2024/02/24 12:18:42;;;;;;;18.35;11.73;;;12.70;99.90;;;;;;5107462;28;20256;-48
2024/02/24 12:21:10;;;;;;;5.15;1.83;;;12.80;99.90;;;;;;5106539;28;20024;-50
2024/02/24 12:23:40;;;;;;;6.57;1.60;;;14.80;99.90;;;;;;5105530;28;20066;-46
2024/02/24 12:26:16;;;;;;;3.55;1.42;;;14.40;99.90;;;;;;5106560;28;20096;-50
2024/02/24 12:28:42;;;;;;;4.80;1.90;;;13.60;99.90;;;;;;5106617;28;20044;-50
2024/02/24 12:31:11;;;;;;;3.40;1.65;;;13.00;99.90;;;;;;5107091;28;20044;-46
2024/02/24 12:33:37;;;;;;;3.90;1.58;;;13.20;99.90;;;;;;5106487;28;20083;-48
2024/02/24 12:36:07;;;;;;;4.70;1.63;;;12.70;99.90;;;;;;5106755;28;20281;-49
2024/02/24 12:38:32;;;;;;;7.55;3.45;;;12.20;99.90;;;;;;5106482;28;20176;-47
2024/02/24 12:40:58;;;;;;;10.80;1.80;;;11.70;99.90;;;;;;5105653;28;20042;-49
2024/02/24 12:43:24;;;;;;;5.35;2.03;;;11.40;99.90;;;;;;5106214;28;20071;-47
2024/02/24 12:45:51;;;;;;;8.73;5.72;;;11.20;99.90;;;;;;5106280;28;20028;-48